Currently 83°F in Moreno Valley, California, USA
83°F
104°F / 73°F
calm
0.00"
Wednesday, September 30, 2020 9:01 PM PDT

Moreno Valley, California Weather Summary
Last 36 Hours

Temperature Winds Hourly Humidity Dewpoint
Time Report Norm Report Norm Max Gusts Precip. Rpt. Norm Rpt. Norm Pressure
1Wed 09:01 PM  82.6°F  71°F  calm  2 mph  none  0.00"  24%  53%  41°F  52°F  29.92"
Wed 09:00 PM  82.7°F  71°F  calm  2 mph  10 mph  0.00"  24%  53%  41°F  52°F  29.92"
Wed 08:00 PM  88.6°F  73°F  3 mph NW  3 mph  19 mph  0.00"  21%  49%  42°F  52°F  29.91"
Wed 07:00 PM  90.8°F  76°F  7 mph NW  4 mph  16 mph  0.00"  24%  45%  48°F  52°F  29.89"
Wed 06:00 PM  98.2°F  81°F  6 mph W  5 mph  10 mph  0.00"  11%  38%  32°F  52°F  29.88"
Wed 05:00 PM  101.9°F  85°F  8 mph W  6 mph  11 mph  0.00"  9%  33%  31°F  51°F  29.87"
Wed 04:00 PM  103.1°F  87°F  4 mph NW  6 mph  13 mph  0.00"  9%  29%  31°F  50°F  29.88"
Wed 03:00 PM  103.2°F  87°F  7 mph W  6 mph  14 mph  0.00"  9%  27%  31°F  49°F  29.88"
2Wed 02:04 PM  104.4°F  87°F  5 mph W  5 mph  14 mph  ----  9%  28%  32°F  48°F  29.90"
Wed 02:00 PM  104.4°F  87°F  4 mph W  5 mph  17 mph  0.00"  9%  27%  32°F  48°F  29.90"
Wed 01:00 PM  101.6°F  85°F  1 mph SW  5 mph  11 mph  0.00"  10%  29%  33°F  49°F  29.93"
Wed 12:00 PM  100.2°F  83°F  5 mph W  4 mph  9 mph  0.00"  11%  33%  35°F  50°F  29.95"
Wed 11:00 AM  96.2°F  80°F  calm  3 mph  5 mph  0.00"  15%  38%  39°F  51°F  29.96"
Wed 10:00 AM  93.2°F  77°F  calm  3 mph  3 mph  0.00"  17%  45%  41°F  53°F  29.97"
Wed 09:00 AM  89.1°F  73°F  calm  2 mph  3 mph  0.00"  21%  52%  43°F  54°F  29.97"
Wed 08:00 AM  81.2°F  68°F  calm  1 mph  3 mph  0.00"  26%  59%  42°F  53°F  29.97"
Wed 07:00 AM  73.3°F  63°F  calm  1 mph  none  0.00"  29%  64%  38°F  51°F  29.96"
3Wed 06:50 AM  73.1°F  63°F  calm  1 mph  none  ----  29%  64%  37°F  50°F  29.95"
Wed 06:00 AM  73.8°F  64°F  calm  1 mph  none  0.00"  29%  64%  38°F  51°F  29.94"
Wed 05:00 AM  74.2°F  64°F  calm  1 mph  none  0.00"  28%  64%  38°F  51°F  29.93"
Wed 04:00 AM  75.6°F  64°F  calm  1 mph  none  0.00"  28%  64%  39°F  51°F  29.93"
Wed 03:00 AM  74.7°F  64°F  calm  1 mph  3 mph  0.00"  30%  64%  40°F  51°F  29.94"
Wed 02:00 AM  81.4°F  65°F  calm  1 mph  9 mph  0.00"  25%  63%  41°F  52°F  29.95"
Wed 01:00 AM  79.2°F  66°F  4 mph SE  1 mph  5 mph  0.00"  26%  62%  40°F  52°F  29.95"
Wed 12:00 AM  79.4°F  67°F  calm  1 mph  none  0.00"  27%  60%  41°F  52°F  29.96"
Tue 11:00 PM  78.6°F  68°F  calm  1 mph  none  0.00"  29%  57%  42°F  52°F  29.95"
Tue 10:00 PM  80.0°F  69°F  calm  1 mph  5 mph  0.00"  29%  54%  44°F  52°F  29.95"
Tue 09:00 PM  81.7°F  72°F  1 mph NE  2 mph  7 mph  0.00"  31%  51%  47°F  52°F  29.94"
Tue 08:00 PM  86.9°F  74°F  calm  3 mph  11 mph  0.00"  29%  47%  49°F  52°F  29.92"
Tue 07:00 PM  90.2°F  77°F  2 mph NW  4 mph  11 mph  0.00"  29%  43%  52°F  52°F  29.91"
Tue 06:00 PM  96.2°F  82°F  3 mph NW  5 mph  13 mph  0.00"  17%  36%  43°F  51°F  29.88"
Tue 05:00 PM  100.4°F  86°F  7 mph NW  6 mph  14 mph  0.00"  12%  31%  37°F  50°F  29.88"
Tue 04:00 PM  102.3°F  88°F  7 mph W  6 mph  15 mph  0.00"  11%  28%  35°F  49°F  29.88"
Tue 03:00 PM  102.5°F  89°F  6 mph NW  6 mph  16 mph  0.00"  9%  26%  32°F  48°F  29.89"
Tue 02:00 PM  102.1°F  88°F  10 mph W  5 mph  15 mph  0.00"  9%  26%  32°F  47°F  29.91"
Tue 01:00 PM  100.6°F  87°F  2 mph W  5 mph  11 mph  0.00"  11%  27%  35°F  48°F  29.94"
Tue 12:00 PM  99.2°F  84°F  2 mph W  4 mph  10 mph  0.00"  12%  31%  36°F  49°F  29.96"
Tue 11:00 AM  95.8°F  82°F  2 mph NW  3 mph  7 mph  0.00"  14%  35%  37°F  50°F  29.97"
Tue 10:00 AM  91.6°F  78°F  calm  3 mph  4 mph  0.00"  18%  42%  41°F  52°F  29.98"

  1. Current weather data. No green row appears if the current weather data is also the high or low for the current day.
  2. High temperature for the current day.
  3. Low temperature for the current day.

The Moreno Valley, California weather pages are a service of WeatherCurrents. Moreno Valley is located in Southern California's Inland Empire, east of Riverside and north of Perris, along the State Route 60 freeway.
Copyright ©2020  WeatherCurrents. All rights reserved. - Submit questions and comments - Privacy Policy

This page automatically refreshes every 10 minutes.